<?xml version="1.0" encoding="UTF-8" standalone="no" ?>
<gpx xmlns="http://www.topografix.com/GPX/1/1" xmlns:xsi="http://www.w3.org/2001/XMLSchema-instance" xsi:schemaLocation="http://www.topografix.com/GPX/1/1 http://www.topografix.com/GPX/1/1/gpx.xsd" version="1.1" creator="VisuGPX - https://www.visugpx.com">
  <metadata>
    <name>les deux parcs</name>
    <desc><![CDATA[
]]></desc>
  </metadata>
  <trk>
    <name><![CDATA[les deux parcs]]></name>
    <trkseg>
      <trkpt lat="45.85849" lon="1.25897">
        <ele>295</ele>
        <time>2020-01-17T09:54:07.1Z</time>
      </trkpt>
      <trkpt lat="45.85851" lon="1.25915">
        <ele>295</ele>
        <time>2020-01-17T09:54:17.1Z</time>
      </trkpt>
      <trkpt lat="45.85852" lon="1.25934">
        <ele>295</ele>
        <time>2020-01-17T09:54:28.1Z</time>
      </trkpt>
      <trkpt lat="45.85857" lon="1.25952">
        <ele>295</ele>
        <time>2020-01-17T09:54:39.1Z</time>
      </trkpt>
      <trkpt lat="45.85858" lon="1.25965">
        <ele>295</ele>
        <time>2020-01-17T09:54:50.1Z</time>
      </trkpt>
      <trkpt lat="45.85862" lon="1.25983">
        <ele>294</ele>
        <time>2020-01-17T09:55:00.1Z</time>
      </trkpt>
      <trkpt lat="45.85866" lon="1.25996">
        <ele>294</ele>
        <time>2020-01-17T09:55:11.1Z</time>
      </trkpt>
      <trkpt lat="45.8587" lon="1.26011">
        <ele>295</ele>
        <time>2020-01-17T09:55:22.1Z</time>
      </trkpt>
      <trkpt lat="45.85873" lon="1.26028">
        <ele>294</ele>
        <time>2020-01-17T09:55:32.1Z</time>
      </trkpt>
      <trkpt lat="45.85875" lon="1.26047">
        <ele>295</ele>
        <time>2020-01-17T09:55:43.1Z</time>
      </trkpt>
      <trkpt lat="45.85879" lon="1.26065">
        <ele>295</ele>
        <time>2020-01-17T09:55:53.1Z</time>
      </trkpt>
      <trkpt lat="45.85882" lon="1.26083">
        <ele>295</ele>
        <time>2020-01-17T09:56:04.1Z</time>
      </trkpt>
      <trkpt lat="45.85884" lon="1.26103">
        <ele>296</ele>
        <time>2020-01-17T09:56:15.1Z</time>
      </trkpt>
      <trkpt lat="45.85889" lon="1.2612">
        <ele>296</ele>
        <time>2020-01-17T09:56:25.1Z</time>
      </trkpt>
      <trkpt lat="45.85892" lon="1.2614">
        <ele>296</ele>
        <time>2020-01-17T09:56:36.1Z</time>
      </trkpt>
      <trkpt lat="45.85896" lon="1.26164">
        <ele>296</ele>
        <time>2020-01-17T09:56:47.1Z</time>
      </trkpt>
      <trkpt lat="45.85896" lon="1.26186">
        <ele>297</ele>
        <time>2020-01-17T09:56:58.1Z</time>
      </trkpt>
      <trkpt lat="45.85899" lon="1.26206">
        <ele>297</ele>
        <time>2020-01-17T09:57:09.1Z</time>
      </trkpt>
      <trkpt lat="45.85904" lon="1.26223">
        <ele>297</ele>
        <time>2020-01-17T09:57:20.1Z</time>
      </trkpt>
      <trkpt lat="45.85907" lon="1.26241">
        <ele>297</ele>
        <time>2020-01-17T09:57:30.1Z</time>
      </trkpt>
      <trkpt lat="45.85912" lon="1.26261">
        <ele>297</ele>
        <time>2020-01-17T09:57:41.1Z</time>
      </trkpt>
      <trkpt lat="45.85918" lon="1.26283">
        <ele>297</ele>
        <time>2020-01-17T09:57:52.1Z</time>
      </trkpt>
      <trkpt lat="45.85924" lon="1.26303">
        <ele>296</ele>
        <time>2020-01-17T09:58:03.1Z</time>
      </trkpt>
      <trkpt lat="45.85927" lon="1.26321">
        <ele>295</ele>
        <time>2020-01-17T09:58:14.1Z</time>
      </trkpt>
      <trkpt lat="45.85929" lon="1.26346">
        <ele>294</ele>
        <time>2020-01-17T09:58:25.1Z</time>
      </trkpt>
      <trkpt lat="45.85932" lon="1.26367">
        <ele>294</ele>
        <time>2020-01-17T09:58:35.1Z</time>
      </trkpt>
      <trkpt lat="45.85936" lon="1.26388">
        <ele>293</ele>
        <time>2020-01-17T09:58:46.1Z</time>
      </trkpt>
      <trkpt lat="45.8594" lon="1.26408">
        <ele>292</ele>
        <time>2020-01-17T09:58:56.1Z</time>
      </trkpt>
      <trkpt lat="45.85943" lon="1.26428">
        <ele>291</ele>
        <time>2020-01-17T09:59:07.1Z</time>
      </trkpt>
      <trkpt lat="45.85946" lon="1.26449">
        <ele>291</ele>
        <time>2020-01-17T09:59:18.1Z</time>
      </trkpt>
      <trkpt lat="45.85948" lon="1.2647">
        <ele>291</ele>
        <time>2020-01-17T09:59:29.1Z</time>
      </trkpt>
      <trkpt lat="45.85953" lon="1.26485">
        <ele>291</ele>
        <time>2020-01-17T09:59:39.1Z</time>
      </trkpt>
      <trkpt lat="45.85957" lon="1.26504">
        <ele>291</ele>
        <time>2020-01-17T09:59:49.1Z</time>
      </trkpt>
      <trkpt lat="45.8596" lon="1.26524">
        <ele>292</ele>
        <time>2020-01-17T10:00:00.1Z</time>
      </trkpt>
      <trkpt lat="45.85963" lon="1.26546">
        <ele>292</ele>
        <time>2020-01-17T10:00:11.1Z</time>
      </trkpt>
      <trkpt lat="45.85965" lon="1.26566">
        <ele>293</ele>
        <time>2020-01-17T10:00:22.1Z</time>
      </trkpt>
      <trkpt lat="45.85964" lon="1.26588">
        <ele>293</ele>
        <time>2020-01-17T10:00:33.1Z</time>
      </trkpt>
      <trkpt lat="45.8596" lon="1.26603">
        <ele>293</ele>
        <time>2020-01-17T10:00:43.1Z</time>
      </trkpt>
      <trkpt lat="45.85957" lon="1.26621">
        <ele>293</ele>
        <time>2020-01-17T10:00:54.1Z</time>
      </trkpt>
      <trkpt lat="45.8595" lon="1.2664">
        <ele>295</ele>
        <time>2020-01-17T10:01:05.1Z</time>
      </trkpt>
      <trkpt lat="45.85944" lon="1.26656">
        <ele>295</ele>
        <time>2020-01-17T10:01:16.1Z</time>
      </trkpt>
      <trkpt lat="45.8594" lon="1.26678">
        <ele>296</ele>
        <time>2020-01-17T10:01:27.1Z</time>
      </trkpt>
      <trkpt lat="45.85936" lon="1.26697">
        <ele>296</ele>
        <time>2020-01-17T10:01:37.1Z</time>
      </trkpt>
      <trkpt lat="45.85929" lon="1.26717">
        <ele>298</ele>
        <time>2020-01-17T10:01:48.1Z</time>
      </trkpt>
      <trkpt lat="45.85924" lon="1.26735">
        <ele>299</ele>
        <time>2020-01-17T10:01:58.1Z</time>
      </trkpt>
      <trkpt lat="45.85923" lon="1.26758">
        <ele>300</ele>
        <time>2020-01-17T10:02:09.1Z</time>
      </trkpt>
      <trkpt lat="45.85915" lon="1.26771">
        <ele>301</ele>
        <time>2020-01-17T10:02:19.1Z</time>
      </trkpt>
      <trkpt lat="45.85905" lon="1.26786">
        <ele>302</ele>
        <time>2020-01-17T10:02:30.1Z</time>
      </trkpt>
      <trkpt lat="45.85892" lon="1.26795">
        <ele>303</ele>
        <time>2020-01-17T10:02:41.1Z</time>
      </trkpt>
      <trkpt lat="45.85878" lon="1.268">
        <ele>305</ele>
        <time>2020-01-17T10:02:52.1Z</time>
      </trkpt>
      <trkpt lat="45.85867" lon="1.26807">
        <ele>306</ele>
        <time>2020-01-17T10:03:02.1Z</time>
      </trkpt>
      <trkpt lat="45.85857" lon="1.26822">
        <ele>307</ele>
        <time>2020-01-17T10:03:12.1Z</time>
      </trkpt>
      <trkpt lat="45.85846" lon="1.26834">
        <ele>308</ele>
        <time>2020-01-17T10:03:23.1Z</time>
      </trkpt>
      <trkpt lat="45.85836" lon="1.2685">
        <ele>308</ele>
        <time>2020-01-17T10:03:34.1Z</time>
      </trkpt>
      <trkpt lat="45.85824" lon="1.26859">
        <ele>307</ele>
        <time>2020-01-17T10:03:44.1Z</time>
      </trkpt>
      <trkpt lat="45.85811" lon="1.26871">
        <ele>308</ele>
        <time>2020-01-17T10:03:55.1Z</time>
      </trkpt>
      <trkpt lat="45.85799" lon="1.26883">
        <ele>308</ele>
        <time>2020-01-17T10:04:06.1Z</time>
      </trkpt>
      <trkpt lat="45.85792" lon="1.26891">
        <ele>308</ele>
        <time>2020-01-17T10:04:17.1Z</time>
      </trkpt>
      <trkpt lat="45.8578" lon="1.26903">
        <ele>309</ele>
        <time>2020-01-17T10:04:28.1Z</time>
      </trkpt>
      <trkpt lat="45.85769" lon="1.26916">
        <ele>310</ele>
        <time>2020-01-17T10:04:39.1Z</time>
      </trkpt>
      <trkpt lat="45.85757" lon="1.26928">
        <ele>310</ele>
        <time>2020-01-17T10:04:50.1Z</time>
      </trkpt>
      <trkpt lat="45.85744" lon="1.26933">
        <ele>311</ele>
        <time>2020-01-17T10:05:00.1Z</time>
      </trkpt>
      <trkpt lat="45.8573" lon="1.26938">
        <ele>311</ele>
        <time>2020-01-17T10:05:10.1Z</time>
      </trkpt>
      <trkpt lat="45.8572" lon="1.26948">
        <ele>312</ele>
        <time>2020-01-17T10:05:20.1Z</time>
      </trkpt>
      <trkpt lat="45.85725" lon="1.26969">
        <ele>312</ele>
        <time>2020-01-17T10:05:31.1Z</time>
      </trkpt>
      <trkpt lat="45.85734" lon="1.26986">
        <ele>312</ele>
        <time>2020-01-17T10:05:42.1Z</time>
      </trkpt>
      <trkpt lat="45.85733" lon="1.26988">
        <ele>311</ele>
        <time>2020-01-17T10:05:52.1Z</time>
      </trkpt>
      <trkpt lat="45.85727" lon="1.27004">
        <ele>311</ele>
        <time>2020-01-17T10:06:02.1Z</time>
      </trkpt>
      <trkpt lat="45.85724" lon="1.27012">
        <ele>312</ele>
        <time>2020-01-17T10:06:13.1Z</time>
      </trkpt>
      <trkpt lat="45.85716" lon="1.27019">
        <ele>312</ele>
        <time>2020-01-17T10:06:23.1Z</time>
      </trkpt>
      <trkpt lat="45.85707" lon="1.27024">
        <ele>312</ele>
        <time>2020-01-17T10:06:33.1Z</time>
      </trkpt>
      <trkpt lat="45.85705" lon="1.2704">
        <ele>312</ele>
        <time>2020-01-17T10:06:44.1Z</time>
      </trkpt>
      <trkpt lat="45.85705" lon="1.27037">
        <ele>313</ele>
        <time>2020-01-17T10:06:54.1Z</time>
      </trkpt>
      <trkpt lat="45.85709" lon="1.2703">
        <ele>312</ele>
        <time>2020-01-17T10:07:04.1Z</time>
      </trkpt>
      <trkpt lat="45.85708" lon="1.2703">
        <ele>313</ele>
        <time>2020-01-17T10:07:14.1Z</time>
      </trkpt>
      <trkpt lat="45.85705" lon="1.27035">
        <ele>312</ele>
        <time>2020-01-17T10:07:25.1Z</time>
      </trkpt>
      <trkpt lat="45.8571" lon="1.27055">
        <ele>313</ele>
        <time>2020-01-17T10:07:35.1Z</time>
      </trkpt>
      <trkpt lat="45.85716" lon="1.27076">
        <ele>312</ele>
        <time>2020-01-17T10:07:46.1Z</time>
      </trkpt>
      <trkpt lat="45.85722" lon="1.27097">
        <ele>312</ele>
        <time>2020-01-17T10:07:56.1Z</time>
      </trkpt>
      <trkpt lat="45.8573" lon="1.2712">
        <ele>312</ele>
        <time>2020-01-17T10:08:07.1Z</time>
      </trkpt>
      <trkpt lat="45.85737" lon="1.27139">
        <ele>312</ele>
        <time>2020-01-17T10:08:17.1Z</time>
      </trkpt>
      <trkpt lat="45.85747" lon="1.27154">
        <ele>311</ele>
        <time>2020-01-17T10:08:28.1Z</time>
      </trkpt>
      <trkpt lat="45.85758" lon="1.27159">
        <ele>311</ele>
        <time>2020-01-17T10:08:38.1Z</time>
      </trkpt>
      <trkpt lat="45.85777" lon="1.27163">
        <ele>311</ele>
        <time>2020-01-17T10:08:49.1Z</time>
      </trkpt>
      <trkpt lat="45.85792" lon="1.27176">
        <ele>309</ele>
        <time>2020-01-17T10:09:00.1Z</time>
      </trkpt>
      <trkpt lat="45.85804" lon="1.27187">
        <ele>309</ele>
        <time>2020-01-17T10:09:10.1Z</time>
      </trkpt>
      <trkpt lat="45.8581" lon="1.27203">
        <ele>310</ele>
        <time>2020-01-17T10:09:20.1Z</time>
      </trkpt>
      <trkpt lat="45.85817" lon="1.2722">
        <ele>310</ele>
        <time>2020-01-17T10:09:30.1Z</time>
      </trkpt>
      <trkpt lat="45.85825" lon="1.27235">
        <ele>310</ele>
        <time>2020-01-17T10:09:40.1Z</time>
      </trkpt>
      <trkpt lat="45.85836" lon="1.27248">
        <ele>310</ele>
        <time>2020-01-17T10:09:50.1Z</time>
      </trkpt>
      <trkpt lat="45.85844" lon="1.27266">
        <ele>310</ele>
        <time>2020-01-17T10:10:01.1Z</time>
      </trkpt>
      <trkpt lat="45.85845" lon="1.27286">
        <ele>310</ele>
        <time>2020-01-17T10:10:11.1Z</time>
      </trkpt>
      <trkpt lat="45.8585" lon="1.27305">
        <ele>310</ele>
        <time>2020-01-17T10:10:21.1Z</time>
      </trkpt>
      <trkpt lat="45.85863" lon="1.27307">
        <ele>310</ele>
        <time>2020-01-17T10:10:32.1Z</time>
      </trkpt>
      <trkpt lat="45.85877" lon="1.27311">
        <ele>309</ele>
        <time>2020-01-17T10:10:43.1Z</time>
      </trkpt>
      <trkpt lat="45.85891" lon="1.27314">
        <ele>309</ele>
        <time>2020-01-17T10:10:53.1Z</time>
      </trkpt>
      <trkpt lat="45.85905" lon="1.27308">
        <ele>309</ele>
        <time>2020-01-17T10:11:03.1Z</time>
      </trkpt>
      <trkpt lat="45.85915" lon="1.27314">
        <ele>310</ele>
        <time>2020-01-17T10:11:13.1Z</time>
      </trkpt>
      <trkpt lat="45.85929" lon="1.2732">
        <ele>310</ele>
        <time>2020-01-17T10:11:23.1Z</time>
      </trkpt>
      <trkpt lat="45.85943" lon="1.27327">
        <ele>311</ele>
        <time>2020-01-17T10:11:34.1Z</time>
      </trkpt>
      <trkpt lat="45.85954" lon="1.27335">
        <ele>312</ele>
        <time>2020-01-17T10:11:44.1Z</time>
      </trkpt>
      <trkpt lat="45.85968" lon="1.27343">
        <ele>312</ele>
        <time>2020-01-17T10:11:55.1Z</time>
      </trkpt>
      <trkpt lat="45.85984" lon="1.27352">
        <ele>313</ele>
        <time>2020-01-17T10:12:06.1Z</time>
      </trkpt>
      <trkpt lat="45.85995" lon="1.27361">
        <ele>314</ele>
        <time>2020-01-17T10:12:16.1Z</time>
      </trkpt>
      <trkpt lat="45.85997" lon="1.27376">
        <ele>314</ele>
        <time>2020-01-17T10:12:27.1Z</time>
      </trkpt>
      <trkpt lat="45.85998" lon="1.27397">
        <ele>315</ele>
        <time>2020-01-17T10:12:38.1Z</time>
      </trkpt>
      <trkpt lat="45.86006" lon="1.27411">
        <ele>316</ele>
        <time>2020-01-17T10:12:49.1Z</time>
      </trkpt>
      <trkpt lat="45.86017" lon="1.27419">
        <ele>316</ele>
        <time>2020-01-17T10:12:59.1Z</time>
      </trkpt>
      <trkpt lat="45.86031" lon="1.27428">
        <ele>317</ele>
        <time>2020-01-17T10:13:10.1Z</time>
      </trkpt>
      <trkpt lat="45.86035" lon="1.27438">
        <ele>317</ele>
        <time>2020-01-17T10:13:20.1Z</time>
      </trkpt>
      <trkpt lat="45.86034" lon="1.27456">
        <ele>318</ele>
        <time>2020-01-17T10:13:31.1Z</time>
      </trkpt>
      <trkpt lat="45.86033" lon="1.27477">
        <ele>318</ele>
        <time>2020-01-17T10:13:42.1Z</time>
      </trkpt>
      <trkpt lat="45.8603" lon="1.275">
        <ele>318</ele>
        <time>2020-01-17T10:13:53.1Z</time>
      </trkpt>
      <trkpt lat="45.86025" lon="1.27522">
        <ele>319</ele>
        <time>2020-01-17T10:14:04.1Z</time>
      </trkpt>
      <trkpt lat="45.86023" lon="1.27542">
        <ele>320</ele>
        <time>2020-01-17T10:14:15.1Z</time>
      </trkpt>
      <trkpt lat="45.86023" lon="1.27561">
        <ele>320</ele>
        <time>2020-01-17T10:14:25.1Z</time>
      </trkpt>
      <trkpt lat="45.8602" lon="1.27583">
        <ele>320</ele>
        <time>2020-01-17T10:14:36.1Z</time>
      </trkpt>
      <trkpt lat="45.86017" lon="1.27605">
        <ele>321</ele>
        <time>2020-01-17T10:14:47.1Z</time>
      </trkpt>
      <trkpt lat="45.86014" lon="1.27625">
        <ele>321</ele>
        <time>2020-01-17T10:14:57.1Z</time>
      </trkpt>
      <trkpt lat="45.86137" lon="1.28178">
        <ele>323</ele>
        <time>2020-01-17T10:15:07.1Z</time>
      </trkpt>
      <trkpt lat="45.86145" lon="1.28196">
        <ele>323</ele>
        <time>2020-01-17T10:15:18.1Z</time>
      </trkpt>
      <trkpt lat="45.86153" lon="1.28209">
        <ele>323</ele>
        <time>2020-01-17T10:15:28.1Z</time>
      </trkpt>
      <trkpt lat="45.86158" lon="1.28229">
        <ele>323</ele>
        <time>2020-01-17T10:15:39.1Z</time>
      </trkpt>
      <trkpt lat="45.86164" lon="1.2825">
        <ele>324</ele>
        <time>2020-01-17T10:15:50.1Z</time>
      </trkpt>
      <trkpt lat="45.8617" lon="1.28268">
        <ele>323</ele>
        <time>2020-01-17T10:16:00.1Z</time>
      </trkpt>
      <trkpt lat="45.86176" lon="1.28286">
        <ele>324</ele>
        <time>2020-01-17T10:16:10.1Z</time>
      </trkpt>
      <trkpt lat="45.86181" lon="1.28309">
        <ele>324</ele>
        <time>2020-01-17T10:16:21.1Z</time>
      </trkpt>
      <trkpt lat="45.86187" lon="1.28329">
        <ele>324</ele>
        <time>2020-01-17T10:16:32.1Z</time>
      </trkpt>
      <trkpt lat="45.86187" lon="1.28346">
        <ele>324</ele>
        <time>2020-01-17T10:16:42.1Z</time>
      </trkpt>
      <trkpt lat="45.8618" lon="1.28355">
        <ele>325</ele>
        <time>2020-01-17T10:16:52.1Z</time>
      </trkpt>
      <trkpt lat="45.86171" lon="1.28363">
        <ele>326</ele>
        <time>2020-01-17T10:17:03.1Z</time>
      </trkpt>
      <trkpt lat="45.86163" lon="1.28377">
        <ele>326</ele>
        <time>2020-01-17T10:17:13.1Z</time>
      </trkpt>
      <trkpt lat="45.86161" lon="1.28396">
        <ele>327</ele>
        <time>2020-01-17T10:17:23.1Z</time>
      </trkpt>
      <trkpt lat="45.86166" lon="1.28418">
        <ele>327</ele>
        <time>2020-01-17T10:17:33.1Z</time>
      </trkpt>
      <trkpt lat="45.86172" lon="1.28438">
        <ele>327</ele>
        <time>2020-01-17T10:17:44.1Z</time>
      </trkpt>
      <trkpt lat="45.8618" lon="1.28454">
        <ele>327</ele>
        <time>2020-01-17T10:17:54.1Z</time>
      </trkpt>
      <trkpt lat="45.86187" lon="1.2847">
        <ele>328</ele>
        <time>2020-01-17T10:18:04.1Z</time>
      </trkpt>
      <trkpt lat="45.86197" lon="1.2849">
        <ele>328</ele>
        <time>2020-01-17T10:18:15.1Z</time>
      </trkpt>
      <trkpt lat="45.86205" lon="1.28505">
        <ele>328</ele>
        <time>2020-01-17T10:18:25.1Z</time>
      </trkpt>
      <trkpt lat="45.86213" lon="1.28521">
        <ele>329</ele>
        <time>2020-01-17T10:18:35.1Z</time>
      </trkpt>
      <trkpt lat="45.86221" lon="1.28538">
        <ele>329</ele>
        <time>2020-01-17T10:18:45.1Z</time>
      </trkpt>
      <trkpt lat="45.8623" lon="1.28556">
        <ele>329</ele>
        <time>2020-01-17T10:18:56.1Z</time>
      </trkpt>
      <trkpt lat="45.86236" lon="1.28574">
        <ele>329</ele>
        <time>2020-01-17T10:19:06.1Z</time>
      </trkpt>
      <trkpt lat="45.86246" lon="1.28591">
        <ele>329</ele>
        <time>2020-01-17T10:19:17.1Z</time>
      </trkpt>
      <trkpt lat="45.86257" lon="1.28606">
        <ele>330</ele>
        <time>2020-01-17T10:19:28.1Z</time>
      </trkpt>
      <trkpt lat="45.86268" lon="1.28621">
        <ele>329</ele>
        <time>2020-01-17T10:19:38.1Z</time>
      </trkpt>
      <trkpt lat="45.86281" lon="1.28621">
        <ele>330</ele>
        <time>2020-01-17T10:19:48.1Z</time>
      </trkpt>
      <trkpt lat="45.86294" lon="1.2862">
        <ele>330</ele>
        <time>2020-01-17T10:19:59.1Z</time>
      </trkpt>
      <trkpt lat="45.86307" lon="1.28618">
        <ele>332</ele>
        <time>2020-01-17T10:20:09.1Z</time>
      </trkpt>
      <trkpt lat="45.86323" lon="1.28621">
        <ele>331</ele>
        <time>2020-01-17T10:20:20.1Z</time>
      </trkpt>
      <trkpt lat="45.86339" lon="1.28621">
        <ele>332</ele>
        <time>2020-01-17T10:20:31.1Z</time>
      </trkpt>
      <trkpt lat="45.86354" lon="1.28622">
        <ele>332</ele>
        <time>2020-01-17T10:20:42.1Z</time>
      </trkpt>
      <trkpt lat="45.86371" lon="1.28623">
        <ele>333</ele>
        <time>2020-01-17T10:20:53.1Z</time>
      </trkpt>
      <trkpt lat="45.86385" lon="1.28628">
        <ele>334</ele>
        <time>2020-01-17T10:21:03.1Z</time>
      </trkpt>
      <trkpt lat="45.86401" lon="1.28628">
        <ele>335</ele>
        <time>2020-01-17T10:21:14.1Z</time>
      </trkpt>
      <trkpt lat="45.86415" lon="1.28633">
        <ele>336</ele>
        <time>2020-01-17T10:21:25.1Z</time>
      </trkpt>
      <trkpt lat="45.86431" lon="1.28645">
        <ele>336</ele>
        <time>2020-01-17T10:21:36.1Z</time>
      </trkpt>
      <trkpt lat="45.86443" lon="1.28657">
        <ele>337</ele>
        <time>2020-01-17T10:21:46.1Z</time>
      </trkpt>
      <trkpt lat="45.86452" lon="1.28673">
        <ele>337</ele>
        <time>2020-01-17T10:21:56.1Z</time>
      </trkpt>
      <trkpt lat="45.86464" lon="1.28686">
        <ele>338</ele>
        <time>2020-01-17T10:22:07.1Z</time>
      </trkpt>
      <trkpt lat="45.86476" lon="1.28697">
        <ele>338</ele>
        <time>2020-01-17T10:22:18.1Z</time>
      </trkpt>
      <trkpt lat="45.86486" lon="1.28702">
        <ele>340</ele>
        <time>2020-01-17T10:22:28.1Z</time>
      </trkpt>
      <trkpt lat="45.865" lon="1.2871">
        <ele>340</ele>
        <time>2020-01-17T10:22:38.1Z</time>
      </trkpt>
      <trkpt lat="45.86515" lon="1.28709">
        <ele>341</ele>
        <time>2020-01-17T10:22:49.1Z</time>
      </trkpt>
      <trkpt lat="45.86526" lon="1.28708">
        <ele>341</ele>
        <time>2020-01-17T10:23:00.1Z</time>
      </trkpt>
      <trkpt lat="45.8654" lon="1.28703">
        <ele>342</ele>
        <time>2020-01-17T10:23:10.1Z</time>
      </trkpt>
      <trkpt lat="45.86556" lon="1.28692">
        <ele>342</ele>
        <time>2020-01-17T10:23:21.1Z</time>
      </trkpt>
      <trkpt lat="45.86571" lon="1.28694">
        <ele>342</ele>
        <time>2020-01-17T10:23:32.1Z</time>
      </trkpt>
      <trkpt lat="45.86586" lon="1.28704">
        <ele>341</ele>
        <time>2020-01-17T10:23:43.1Z</time>
      </trkpt>
      <trkpt lat="45.86601" lon="1.28715">
        <ele>341</ele>
        <time>2020-01-17T10:23:54.1Z</time>
      </trkpt>
      <trkpt lat="45.86613" lon="1.28723">
        <ele>340</ele>
        <time>2020-01-17T10:24:04.1Z</time>
      </trkpt>
      <trkpt lat="45.86622" lon="1.28735">
        <ele>340</ele>
        <time>2020-01-17T10:24:15.1Z</time>
      </trkpt>
      <trkpt lat="45.86623" lon="1.28756">
        <ele>340</ele>
        <time>2020-01-17T10:24:26.1Z</time>
      </trkpt>
      <trkpt lat="45.86623" lon="1.28775">
        <ele>341</ele>
        <time>2020-01-17T10:24:36.1Z</time>
      </trkpt>
      <trkpt lat="45.86625" lon="1.28798">
        <ele>340</ele>
        <time>2020-01-17T10:24:47.1Z</time>
      </trkpt>
      <trkpt lat="45.86637" lon="1.28806">
        <ele>339</ele>
        <time>2020-01-17T10:24:58.1Z</time>
      </trkpt>
      <trkpt lat="45.8665" lon="1.28809">
        <ele>338</ele>
        <time>2020-01-17T10:25:08.1Z</time>
      </trkpt>
      <trkpt lat="45.86666" lon="1.28812">
        <ele>338</ele>
        <time>2020-01-17T10:25:19.1Z</time>
      </trkpt>
      <trkpt lat="45.86685" lon="1.28817">
        <ele>337</ele>
        <time>2020-01-17T10:25:30.1Z</time>
      </trkpt>
      <trkpt lat="45.86697" lon="1.28827">
        <ele>336</ele>
        <time>2020-01-17T10:25:40.1Z</time>
      </trkpt>
      <trkpt lat="45.86695" lon="1.28846">
        <ele>336</ele>
        <time>2020-01-17T10:25:50.1Z</time>
      </trkpt>
      <trkpt lat="45.8669" lon="1.28858">
        <ele>336</ele>
        <time>2020-01-17T10:26:00.1Z</time>
      </trkpt>
      <trkpt lat="45.86687" lon="1.28878">
        <ele>336</ele>
        <time>2020-01-17T10:26:11.1Z</time>
      </trkpt>
      <trkpt lat="45.86692" lon="1.28902">
        <ele>336</ele>
        <time>2020-01-17T10:26:22.1Z</time>
      </trkpt>
      <trkpt lat="45.86702" lon="1.28919">
        <ele>337</ele>
        <time>2020-01-17T10:26:32.1Z</time>
      </trkpt>
      <trkpt lat="45.86716" lon="1.28931">
        <ele>336</ele>
        <time>2020-01-17T10:26:43.1Z</time>
      </trkpt>
      <trkpt lat="45.86727" lon="1.28939">
        <ele>337</ele>
        <time>2020-01-17T10:26:53.1Z</time>
      </trkpt>
      <trkpt lat="45.86741" lon="1.28951">
        <ele>336</ele>
        <time>2020-01-17T10:27:03.1Z</time>
      </trkpt>
      <trkpt lat="45.86755" lon="1.2896">
        <ele>337</ele>
        <time>2020-01-17T10:27:13.1Z</time>
      </trkpt>
      <trkpt lat="45.86765" lon="1.28974">
        <ele>337</ele>
        <time>2020-01-17T10:27:23.1Z</time>
      </trkpt>
      <trkpt lat="45.86776" lon="1.28988">
        <ele>336</ele>
        <time>2020-01-17T10:27:34.1Z</time>
      </trkpt>
      <trkpt lat="45.86791" lon="1.28985">
        <ele>336</ele>
        <time>2020-01-17T10:27:44.1Z</time>
      </trkpt>
      <trkpt lat="45.86802" lon="1.2897">
        <ele>335</ele>
        <time>2020-01-17T10:27:55.1Z</time>
      </trkpt>
      <trkpt lat="45.86815" lon="1.28961">
        <ele>334</ele>
        <time>2020-01-17T10:28:06.1Z</time>
      </trkpt>
      <trkpt lat="45.86834" lon="1.28948">
        <ele>333</ele>
        <time>2020-01-17T10:28:17.1Z</time>
      </trkpt>
      <trkpt lat="45.86848" lon="1.28939">
        <ele>332</ele>
        <time>2020-01-17T10:28:27.1Z</time>
      </trkpt>
      <trkpt lat="45.86864" lon="1.28938">
        <ele>331</ele>
        <time>2020-01-17T10:28:38.1Z</time>
      </trkpt>
      <trkpt lat="45.86877" lon="1.2895">
        <ele>330</ele>
        <time>2020-01-17T10:28:48.1Z</time>
      </trkpt>
      <trkpt lat="45.86894" lon="1.28954">
        <ele>330</ele>
        <time>2020-01-17T10:28:59.1Z</time>
      </trkpt>
      <trkpt lat="45.86901" lon="1.28951">
        <ele>329</ele>
        <time>2020-01-17T10:29:09.1Z</time>
      </trkpt>
      <trkpt lat="45.86903" lon="1.28942">
        <ele>329</ele>
        <time>2020-01-17T10:29:19.1Z</time>
      </trkpt>
      <trkpt lat="45.86906" lon="1.28934">
        <ele>329</ele>
        <time>2020-01-17T10:29:29.1Z</time>
      </trkpt>
      <trkpt lat="45.86904" lon="1.28937">
        <ele>329</ele>
        <time>2020-01-17T10:29:42.1Z</time>
      </trkpt>
      <trkpt lat="45.86906" lon="1.28922">
        <ele>329</ele>
        <time>2020-01-17T10:29:53.1Z</time>
      </trkpt>
      <trkpt lat="45.86905" lon="1.28929">
        <ele>329</ele>
        <time>2020-01-17T10:30:04.1Z</time>
      </trkpt>
      <trkpt lat="45.86924" lon="1.28942">
        <ele>328</ele>
        <time>2020-01-17T10:30:14.1Z</time>
      </trkpt>
      <trkpt lat="45.86949" lon="1.28937">
        <ele>327</ele>
        <time>2020-01-17T10:30:25.1Z</time>
      </trkpt>
      <trkpt lat="45.86964" lon="1.2893">
        <ele>327</ele>
        <time>2020-01-17T10:30:36.1Z</time>
      </trkpt>
      <trkpt lat="45.8699" lon="1.28932">
        <ele>328</ele>
        <time>2020-01-17T10:30:47.1Z</time>
      </trkpt>
      <trkpt lat="45.87016" lon="1.28935">
        <ele>328</ele>
        <time>2020-01-17T10:30:57.1Z</time>
      </trkpt>
      <trkpt lat="45.87033" lon="1.28934">
        <ele>327</ele>
        <time>2020-01-17T10:31:07.1Z</time>
      </trkpt>
      <trkpt lat="45.87054" lon="1.28928">
        <ele>327</ele>
        <time>2020-01-17T10:31:18.1Z</time>
      </trkpt>
      <trkpt lat="45.8707" lon="1.2892">
        <ele>326</ele>
        <time>2020-01-17T10:31:28.1Z</time>
      </trkpt>
      <trkpt lat="45.87088" lon="1.28903">
        <ele>326</ele>
        <time>2020-01-17T10:31:38.1Z</time>
      </trkpt>
      <trkpt lat="45.87105" lon="1.28888">
        <ele>325</ele>
        <time>2020-01-17T10:31:49.1Z</time>
      </trkpt>
      <trkpt lat="45.8712" lon="1.28872">
        <ele>323</ele>
        <time>2020-01-17T10:32:00.1Z</time>
      </trkpt>
      <trkpt lat="45.87133" lon="1.28854">
        <ele>322</ele>
        <time>2020-01-17T10:32:10.1Z</time>
      </trkpt>
      <trkpt lat="45.87149" lon="1.28832">
        <ele>322</ele>
        <time>2020-01-17T10:32:21.1Z</time>
      </trkpt>
      <trkpt lat="45.87162" lon="1.28808">
        <ele>322</ele>
        <time>2020-01-17T10:32:31.1Z</time>
      </trkpt>
      <trkpt lat="45.8713" lon="1.28772">
        <ele>321</ele>
        <time>2020-01-17T10:32:55.1Z</time>
      </trkpt>
      <trkpt lat="45.87174" lon="1.2872">
        <ele>321</ele>
        <time>2020-01-17T10:33:06.1Z</time>
      </trkpt>
      <trkpt lat="45.87183" lon="1.28717">
        <ele>320</ele>
        <time>2020-01-17T10:33:16.1Z</time>
      </trkpt>
      <trkpt lat="45.87196" lon="1.28726">
        <ele>319</ele>
        <time>2020-01-17T10:33:27.1Z</time>
      </trkpt>
      <trkpt lat="45.87206" lon="1.28727">
        <ele>317</ele>
        <time>2020-01-17T10:33:37.1Z</time>
      </trkpt>
      <trkpt lat="45.87216" lon="1.28713">
        <ele>314</ele>
        <time>2020-01-17T10:33:47.1Z</time>
      </trkpt>
      <trkpt lat="45.87219" lon="1.2869">
        <ele>314</ele>
        <time>2020-01-17T10:33:58.1Z</time>
      </trkpt>
      <trkpt lat="45.87226" lon="1.28667">
        <ele>312</ele>
        <time>2020-01-17T10:34:09.1Z</time>
      </trkpt>
      <trkpt lat="45.87231" lon="1.28644">
        <ele>313</ele>
        <time>2020-01-17T10:34:19.1Z</time>
      </trkpt>
      <trkpt lat="45.87238" lon="1.28626">
        <ele>313</ele>
        <time>2020-01-17T10:34:30.1Z</time>
      </trkpt>
      <trkpt lat="45.87247" lon="1.28608">
        <ele>314</ele>
        <time>2020-01-17T10:34:40.1Z</time>
      </trkpt>
      <trkpt lat="45.87251" lon="1.28586">
        <ele>314</ele>
        <time>2020-01-17T10:34:50.1Z</time>
      </trkpt>
      <trkpt lat="45.87248" lon="1.28564">
        <ele>314</ele>
        <time>2020-01-17T10:35:01.1Z</time>
      </trkpt>
      <trkpt lat="45.87237" lon="1.28555">
        <ele>316</ele>
        <time>2020-01-17T10:35:11.1Z</time>
      </trkpt>
      <trkpt lat="45.87218" lon="1.2855">
        <ele>318</ele>
        <time>2020-01-17T10:35:22.1Z</time>
      </trkpt>
      <trkpt lat="45.87204" lon="1.28549">
        <ele>319</ele>
        <time>2020-01-17T10:35:32.1Z</time>
      </trkpt>
      <trkpt lat="45.87186" lon="1.28547">
        <ele>320</ele>
        <time>2020-01-17T10:35:43.1Z</time>
      </trkpt>
      <trkpt lat="45.87171" lon="1.28546">
        <ele>321</ele>
        <time>2020-01-17T10:35:54.1Z</time>
      </trkpt>
      <trkpt lat="45.87159" lon="1.28546">
        <ele>321</ele>
        <time>2020-01-17T10:36:04.1Z</time>
      </trkpt>
      <trkpt lat="45.87144" lon="1.28551">
        <ele>320</ele>
        <time>2020-01-17T10:36:15.1Z</time>
      </trkpt>
      <trkpt lat="45.87129" lon="1.28553">
        <ele>321</ele>
        <time>2020-01-17T10:36:25.1Z</time>
      </trkpt>
      <trkpt lat="45.87114" lon="1.28556">
        <ele>320</ele>
        <time>2020-01-17T10:36:36.1Z</time>
      </trkpt>
      <trkpt lat="45.87102" lon="1.28559">
        <ele>319</ele>
        <time>2020-01-17T10:36:46.1Z</time>
      </trkpt>
      <trkpt lat="45.87092" lon="1.28556">
        <ele>318</ele>
        <time>2020-01-17T10:36:56.1Z</time>
      </trkpt>
      <trkpt lat="45.87082" lon="1.28557">
        <ele>317</ele>
        <time>2020-01-17T10:37:07.1Z</time>
      </trkpt>
      <trkpt lat="45.87067" lon="1.28556">
        <ele>316</ele>
        <time>2020-01-17T10:37:17.1Z</time>
      </trkpt>
      <trkpt lat="45.8705" lon="1.28552">
        <ele>314</ele>
        <time>2020-01-17T10:37:28.1Z</time>
      </trkpt>
      <trkpt lat="45.87038" lon="1.28552">
        <ele>314</ele>
        <time>2020-01-17T10:37:39.1Z</time>
      </trkpt>
      <trkpt lat="45.87028" lon="1.28546">
        <ele>313</ele>
        <time>2020-01-17T10:37:50.1Z</time>
      </trkpt>
      <trkpt lat="45.87018" lon="1.28536">
        <ele>313</ele>
        <time>2020-01-17T10:38:00.1Z</time>
      </trkpt>
      <trkpt lat="45.87004" lon="1.28529">
        <ele>315</ele>
        <time>2020-01-17T10:38:11.1Z</time>
      </trkpt>
      <trkpt lat="45.86987" lon="1.2852">
        <ele>315</ele>
        <time>2020-01-17T10:38:22.1Z</time>
      </trkpt>
      <trkpt lat="45.86977" lon="1.28508">
        <ele>314</ele>
        <time>2020-01-17T10:38:32.1Z</time>
      </trkpt>
      <trkpt lat="45.86984" lon="1.28495">
        <ele>314</ele>
        <time>2020-01-17T10:38:42.1Z</time>
      </trkpt>
      <trkpt lat="45.86997" lon="1.28484">
        <ele>315</ele>
        <time>2020-01-17T10:38:53.1Z</time>
      </trkpt>
      <trkpt lat="45.86997" lon="1.28469">
        <ele>316</ele>
        <time>2020-01-17T10:39:03.1Z</time>
      </trkpt>
      <trkpt lat="45.86995" lon="1.28447">
        <ele>317</ele>
        <time>2020-01-17T10:39:14.1Z</time>
      </trkpt>
      <trkpt lat="45.86987" lon="1.2843">
        <ele>317</ele>
        <time>2020-01-17T10:39:24.1Z</time>
      </trkpt>
      <trkpt lat="45.8698" lon="1.28409">
        <ele>318</ele>
        <time>2020-01-17T10:39:35.1Z</time>
      </trkpt>
      <trkpt lat="45.86974" lon="1.2839">
        <ele>318</ele>
        <time>2020-01-17T10:39:45.1Z</time>
      </trkpt>
      <trkpt lat="45.86968" lon="1.28372">
        <ele>319</ele>
        <time>2020-01-17T10:39:56.1Z</time>
      </trkpt>
      <trkpt lat="45.86952" lon="1.28355">
        <ele>319</ele>
        <time>2020-01-17T10:40:06.1Z</time>
      </trkpt>
      <trkpt lat="45.86944" lon="1.28332">
        <ele>320</ele>
        <time>2020-01-17T10:40:17.1Z</time>
      </trkpt>
      <trkpt lat="45.86938" lon="1.28315">
        <ele>319</ele>
        <time>2020-01-17T10:40:27.1Z</time>
      </trkpt>
      <trkpt lat="45.86935" lon="1.28298">
        <ele>319</ele>
        <time>2020-01-17T10:40:37.1Z</time>
      </trkpt>
      <trkpt lat="45.86933" lon="1.28282">
        <ele>317</ele>
        <time>2020-01-17T10:40:47.1Z</time>
      </trkpt>
      <trkpt lat="45.86929" lon="1.28267">
        <ele>315</ele>
        <time>2020-01-17T10:40:57.1Z</time>
      </trkpt>
      <trkpt lat="45.86922" lon="1.28249">
        <ele>313</ele>
        <time>2020-01-17T10:41:08.1Z</time>
      </trkpt>
      <trkpt lat="45.86915" lon="1.28228">
        <ele>310</ele>
        <time>2020-01-17T10:41:18.1Z</time>
      </trkpt>
      <trkpt lat="45.86904" lon="1.28215">
        <ele>309</ele>
        <time>2020-01-17T10:41:29.1Z</time>
      </trkpt>
      <trkpt lat="45.86885" lon="1.28202">
        <ele>308</ele>
        <time>2020-01-17T10:41:40.1Z</time>
      </trkpt>
      <trkpt lat="45.8688" lon="1.28188">
        <ele>308</ele>
        <time>2020-01-17T10:41:51.1Z</time>
      </trkpt>
      <trkpt lat="45.86882" lon="1.28173">
        <ele>308</ele>
        <time>2020-01-17T10:42:01.1Z</time>
      </trkpt>
      <trkpt lat="45.86886" lon="1.28155">
        <ele>310</ele>
        <time>2020-01-17T10:42:12.1Z</time>
      </trkpt>
      <trkpt lat="45.86891" lon="1.28135">
        <ele>312</ele>
        <time>2020-01-17T10:42:22.1Z</time>
      </trkpt>
      <trkpt lat="45.86881" lon="1.28121">
        <ele>313</ele>
        <time>2020-01-17T10:42:33.1Z</time>
      </trkpt>
      <trkpt lat="45.86867" lon="1.28118">
        <ele>315</ele>
        <time>2020-01-17T10:42:43.1Z</time>
      </trkpt>
      <trkpt lat="45.86857" lon="1.28103">
        <ele>316</ele>
        <time>2020-01-17T10:42:54.1Z</time>
      </trkpt>
      <trkpt lat="45.86847" lon="1.28091">
        <ele>316</ele>
        <time>2020-01-17T10:43:04.1Z</time>
      </trkpt>
      <trkpt lat="45.86833" lon="1.2808">
        <ele>316</ele>
        <time>2020-01-17T10:43:15.1Z</time>
      </trkpt>
      <trkpt lat="45.86822" lon="1.28071">
        <ele>315</ele>
        <time>2020-01-17T10:43:26.1Z</time>
      </trkpt>
      <trkpt lat="45.86807" lon="1.28063">
        <ele>316</ele>
        <time>2020-01-17T10:43:36.1Z</time>
      </trkpt>
      <trkpt lat="45.86789" lon="1.28054">
        <ele>316</ele>
        <time>2020-01-17T10:43:46.1Z</time>
      </trkpt>
      <trkpt lat="45.86776" lon="1.28044">
        <ele>315</ele>
        <time>2020-01-17T10:43:56.1Z</time>
      </trkpt>
      <trkpt lat="45.8676" lon="1.28038">
        <ele>316</ele>
        <time>2020-01-17T10:44:07.1Z</time>
      </trkpt>
      <trkpt lat="45.86742" lon="1.28037">
        <ele>316</ele>
        <time>2020-01-17T10:44:18.1Z</time>
      </trkpt>
      <trkpt lat="45.86723" lon="1.28044">
        <ele>316</ele>
        <time>2020-01-17T10:44:28.1Z</time>
      </trkpt>
      <trkpt lat="45.86708" lon="1.28051">
        <ele>316</ele>
        <time>2020-01-17T10:44:39.1Z</time>
      </trkpt>
      <trkpt lat="45.86695" lon="1.28053">
        <ele>316</ele>
        <time>2020-01-17T10:44:50.1Z</time>
      </trkpt>
      <trkpt lat="45.86689" lon="1.28042">
        <ele>315</ele>
        <time>2020-01-17T10:45:00.1Z</time>
      </trkpt>
      <trkpt lat="45.86692" lon="1.28029">
        <ele>314</ele>
        <time>2020-01-17T10:45:11.1Z</time>
      </trkpt>
      <trkpt lat="45.86695" lon="1.28013">
        <ele>312</ele>
        <time>2020-01-17T10:45:21.1Z</time>
      </trkpt>
      <trkpt lat="45.86698" lon="1.27993">
        <ele>311</ele>
        <time>2020-01-17T10:45:31.1Z</time>
      </trkpt>
      <trkpt lat="45.86685" lon="1.27982">
        <ele>310</ele>
        <time>2020-01-17T10:45:42.1Z</time>
      </trkpt>
      <trkpt lat="45.86677" lon="1.2797">
        <ele>309</ele>
        <time>2020-01-17T10:45:52.1Z</time>
      </trkpt>
      <trkpt lat="45.86668" lon="1.27952">
        <ele>309</ele>
        <time>2020-01-17T10:46:03.1Z</time>
      </trkpt>
      <trkpt lat="45.86659" lon="1.27936">
        <ele>307</ele>
        <time>2020-01-17T10:46:13.1Z</time>
      </trkpt>
      <trkpt lat="45.86661" lon="1.27915">
        <ele>305</ele>
        <time>2020-01-17T10:46:24.1Z</time>
      </trkpt>
      <trkpt lat="45.86666" lon="1.27892">
        <ele>304</ele>
        <time>2020-01-17T10:46:34.1Z</time>
      </trkpt>
      <trkpt lat="45.86673" lon="1.27878">
        <ele>303</ele>
        <time>2020-01-17T10:46:44.1Z</time>
      </trkpt>
      <trkpt lat="45.8667" lon="1.27861">
        <ele>302</ele>
        <time>2020-01-17T10:46:54.1Z</time>
      </trkpt>
      <trkpt lat="45.86665" lon="1.27839">
        <ele>301</ele>
        <time>2020-01-17T10:47:06.1Z</time>
      </trkpt>
      <trkpt lat="45.86658" lon="1.27821">
        <ele>301</ele>
        <time>2020-01-17T10:47:16.1Z</time>
      </trkpt>
      <trkpt lat="45.86648" lon="1.27798">
        <ele>301</ele>
        <time>2020-01-17T10:47:26.1Z</time>
      </trkpt>
      <trkpt lat="45.86652" lon="1.27779">
        <ele>300</ele>
        <time>2020-01-17T10:47:36.1Z</time>
      </trkpt>
      <trkpt lat="45.86658" lon="1.27758">
        <ele>299</ele>
        <time>2020-01-17T10:47:47.1Z</time>
      </trkpt>
      <trkpt lat="45.86658" lon="1.27735">
        <ele>300</ele>
        <time>2020-01-17T10:47:58.1Z</time>
      </trkpt>
      <trkpt lat="45.86656" lon="1.27712">
        <ele>299</ele>
        <time>2020-01-17T10:48:08.1Z</time>
      </trkpt>
      <trkpt lat="45.86663" lon="1.27694">
        <ele>299</ele>
        <time>2020-01-17T10:48:19.1Z</time>
      </trkpt>
      <trkpt lat="45.86671" lon="1.27674">
        <ele>299</ele>
        <time>2020-01-17T10:48:29.1Z</time>
      </trkpt>
      <trkpt lat="45.86682" lon="1.27652">
        <ele>299</ele>
        <time>2020-01-17T10:48:40.1Z</time>
      </trkpt>
      <trkpt lat="45.86675" lon="1.27656">
        <ele>298</ele>
        <time>2020-01-17T10:48:50.1Z</time>
      </trkpt>
      <trkpt lat="45.86689" lon="1.27671">
        <ele>297</ele>
        <time>2020-01-17T10:49:02.1Z</time>
      </trkpt>
      <trkpt lat="45.86703" lon="1.27683">
        <ele>297</ele>
        <time>2020-01-17T10:49:12.1Z</time>
      </trkpt>
      <trkpt lat="45.86717" lon="1.27693">
        <ele>296</ele>
        <time>2020-01-17T10:49:23.1Z</time>
      </trkpt>
      <trkpt lat="45.86728" lon="1.27703">
        <ele>296</ele>
        <time>2020-01-17T10:49:33.1Z</time>
      </trkpt>
      <trkpt lat="45.86742" lon="1.27711">
        <ele>295</ele>
        <time>2020-01-17T10:49:44.1Z</time>
      </trkpt>
      <trkpt lat="45.86756" lon="1.2772">
        <ele>294</ele>
        <time>2020-01-17T10:49:54.1Z</time>
      </trkpt>
      <trkpt lat="45.8677" lon="1.27731">
        <ele>294</ele>
        <time>2020-01-17T10:50:04.1Z</time>
      </trkpt>
      <trkpt lat="45.86781" lon="1.2774">
        <ele>292</ele>
        <time>2020-01-17T10:50:15.1Z</time>
      </trkpt>
      <trkpt lat="45.86795" lon="1.27748">
        <ele>292</ele>
        <time>2020-01-17T10:50:27.1Z</time>
      </trkpt>
      <trkpt lat="45.86809" lon="1.27752">
        <ele>291</ele>
        <time>2020-01-17T10:50:37.1Z</time>
      </trkpt>
      <trkpt lat="45.86824" lon="1.27755">
        <ele>290</ele>
        <time>2020-01-17T10:50:47.1Z</time>
      </trkpt>
      <trkpt lat="45.86837" lon="1.27757">
        <ele>289</ele>
        <time>2020-01-17T10:50:58.1Z</time>
      </trkpt>
      <trkpt lat="45.86851" lon="1.27755">
        <ele>289</ele>
        <time>2020-01-17T10:51:08.1Z</time>
      </trkpt>
      <trkpt lat="45.86865" lon="1.27754">
        <ele>288</ele>
        <time>2020-01-17T10:51:19.1Z</time>
      </trkpt>
      <trkpt lat="45.86877" lon="1.27753">
        <ele>288</ele>
        <time>2020-01-17T10:51:30.1Z</time>
      </trkpt>
      <trkpt lat="45.86889" lon="1.27755">
        <ele>287</ele>
        <time>2020-01-17T10:51:40.1Z</time>
      </trkpt>
      <trkpt lat="45.86905" lon="1.27752">
        <ele>286</ele>
        <time>2020-01-17T10:51:50.1Z</time>
      </trkpt>
      <trkpt lat="45.8691" lon="1.27749">
        <ele>286</ele>
        <time>2020-01-17T10:52:01.1Z</time>
      </trkpt>
      <trkpt lat="45.86899" lon="1.27741">
        <ele>285</ele>
        <time>2020-01-17T10:52:11.1Z</time>
      </trkpt>
      <trkpt lat="45.86891" lon="1.27736">
        <ele>284</ele>
        <time>2020-01-17T10:52:21.1Z</time>
      </trkpt>
      <trkpt lat="45.86879" lon="1.27728">
        <ele>285</ele>
        <time>2020-01-17T10:52:32.1Z</time>
      </trkpt>
      <trkpt lat="45.86866" lon="1.27723">
        <ele>284</ele>
        <time>2020-01-17T10:52:42.1Z</time>
      </trkpt>
      <trkpt lat="45.86855" lon="1.27714">
        <ele>284</ele>
        <time>2020-01-17T10:52:52.1Z</time>
      </trkpt>
      <trkpt lat="45.86849" lon="1.277">
        <ele>284</ele>
        <time>2020-01-17T10:53:02.1Z</time>
      </trkpt>
      <trkpt lat="45.86842" lon="1.27687">
        <ele>283</ele>
        <time>2020-01-17T10:53:12.1Z</time>
      </trkpt>
      <trkpt lat="45.86837" lon="1.27669">
        <ele>284</ele>
        <time>2020-01-17T10:53:23.1Z</time>
      </trkpt>
      <trkpt lat="45.86833" lon="1.27649">
        <ele>284</ele>
        <time>2020-01-17T10:53:34.1Z</time>
      </trkpt>
      <trkpt lat="45.86835" lon="1.2763">
        <ele>282</ele>
        <time>2020-01-17T10:53:44.1Z</time>
      </trkpt>
      <trkpt lat="45.86837" lon="1.2761">
        <ele>281</ele>
        <time>2020-01-17T10:53:55.1Z</time>
      </trkpt>
      <trkpt lat="45.86843" lon="1.27592">
        <ele>280</ele>
        <time>2020-01-17T10:54:06.1Z</time>
      </trkpt>
      <trkpt lat="45.86855" lon="1.27585">
        <ele>280</ele>
        <time>2020-01-17T10:54:16.1Z</time>
      </trkpt>
      <trkpt lat="45.86869" lon="1.27579">
        <ele>280</ele>
        <time>2020-01-17T10:54:27.1Z</time>
      </trkpt>
      <trkpt lat="45.86881" lon="1.27575">
        <ele>280</ele>
        <time>2020-01-17T10:54:37.1Z</time>
      </trkpt>
      <trkpt lat="45.86891" lon="1.2757">
        <ele>279</ele>
        <time>2020-01-17T10:54:48.1Z</time>
      </trkpt>
      <trkpt lat="45.86899" lon="1.27561">
        <ele>279</ele>
        <time>2020-01-17T10:54:59.1Z</time>
      </trkpt>
      <trkpt lat="45.86911" lon="1.27545">
        <ele>280</ele>
        <time>2020-01-17T10:55:09.1Z</time>
      </trkpt>
      <trkpt lat="45.86927" lon="1.27526">
        <ele>280</ele>
        <time>2020-01-17T10:55:20.1Z</time>
      </trkpt>
      <trkpt lat="45.86939" lon="1.2751">
        <ele>280</ele>
        <time>2020-01-17T10:55:31.1Z</time>
      </trkpt>
      <trkpt lat="45.86954" lon="1.27498">
        <ele>280</ele>
        <time>2020-01-17T10:55:41.1Z</time>
      </trkpt>
      <trkpt lat="45.86959" lon="1.27485">
        <ele>280</ele>
        <time>2020-01-17T10:55:51.1Z</time>
      </trkpt>
      <trkpt lat="45.86958" lon="1.27466">
        <ele>280</ele>
        <time>2020-01-17T10:56:02.1Z</time>
      </trkpt>
      <trkpt lat="45.86948" lon="1.27445">
        <ele>281</ele>
        <time>2020-01-17T10:56:13.1Z</time>
      </trkpt>
      <trkpt lat="45.8693" lon="1.27436">
        <ele>280</ele>
        <time>2020-01-17T10:56:24.1Z</time>
      </trkpt>
      <trkpt lat="45.86913" lon="1.2743">
        <ele>280</ele>
        <time>2020-01-17T10:56:34.1Z</time>
      </trkpt>
      <trkpt lat="45.86905" lon="1.2741">
        <ele>280</ele>
        <time>2020-01-17T10:56:45.1Z</time>
      </trkpt>
      <trkpt lat="45.86895" lon="1.27389">
        <ele>280</ele>
        <time>2020-01-17T10:56:56.1Z</time>
      </trkpt>
      <trkpt lat="45.86887" lon="1.2737">
        <ele>280</ele>
        <time>2020-01-17T10:57:07.1Z</time>
      </trkpt>
      <trkpt lat="45.8688" lon="1.27354">
        <ele>280</ele>
        <time>2020-01-17T10:57:17.1Z</time>
      </trkpt>
      <trkpt lat="45.86871" lon="1.27335">
        <ele>280</ele>
        <time>2020-01-17T10:57:27.1Z</time>
      </trkpt>
      <trkpt lat="45.8686" lon="1.27314">
        <ele>280</ele>
        <time>2020-01-17T10:57:38.1Z</time>
      </trkpt>
      <trkpt lat="45.86849" lon="1.27294">
        <ele>279</ele>
        <time>2020-01-17T10:57:48.1Z</time>
      </trkpt>
      <trkpt lat="45.86839" lon="1.27272">
        <ele>279</ele>
        <time>2020-01-17T10:57:58.1Z</time>
      </trkpt>
      <trkpt lat="45.86827" lon="1.27253">
        <ele>279</ele>
        <time>2020-01-17T10:58:10.1Z</time>
      </trkpt>
      <trkpt lat="45.86811" lon="1.27241">
        <ele>279</ele>
        <time>2020-01-17T10:58:20.1Z</time>
      </trkpt>
      <trkpt lat="45.86796" lon="1.27236">
        <ele>279</ele>
        <time>2020-01-17T10:58:31.1Z</time>
      </trkpt>
      <trkpt lat="45.86778" lon="1.27229">
        <ele>279</ele>
        <time>2020-01-17T10:58:42.1Z</time>
      </trkpt>
      <trkpt lat="45.86768" lon="1.2722">
        <ele>279</ele>
        <time>2020-01-17T10:58:53.1Z</time>
      </trkpt>
      <trkpt lat="45.86751" lon="1.27208">
        <ele>280</ele>
        <time>2020-01-17T10:59:03.1Z</time>
      </trkpt>
      <trkpt lat="45.86734" lon="1.27201">
        <ele>279</ele>
        <time>2020-01-17T10:59:13.1Z</time>
      </trkpt>
      <trkpt lat="45.86717" lon="1.27199">
        <ele>279</ele>
        <time>2020-01-17T10:59:24.1Z</time>
      </trkpt>
      <trkpt lat="45.867" lon="1.27195">
        <ele>279</ele>
        <time>2020-01-17T10:59:34.1Z</time>
      </trkpt>
      <trkpt lat="45.86685" lon="1.27197">
        <ele>279</ele>
        <time>2020-01-17T10:59:45.1Z</time>
      </trkpt>
      <trkpt lat="45.86677" lon="1.272">
        <ele>279</ele>
        <time>2020-01-17T10:59:55.1Z</time>
      </trkpt>
      <trkpt lat="45.86673" lon="1.27179">
        <ele>279</ele>
        <time>2020-01-17T11:00:06.1Z</time>
      </trkpt>
      <trkpt lat="45.86663" lon="1.27163">
        <ele>279</ele>
        <time>2020-01-17T11:00:16.1Z</time>
      </trkpt>
      <trkpt lat="45.86651" lon="1.27149">
        <ele>279</ele>
        <time>2020-01-17T11:00:26.1Z</time>
      </trkpt>
      <trkpt lat="45.86634" lon="1.27137">
        <ele>278</ele>
        <time>2020-01-17T11:00:37.1Z</time>
      </trkpt>
      <trkpt lat="45.86617" lon="1.27132">
        <ele>278</ele>
        <time>2020-01-17T11:00:48.1Z</time>
      </trkpt>
      <trkpt lat="45.86599" lon="1.27142">
        <ele>278</ele>
        <time>2020-01-17T11:00:58.1Z</time>
      </trkpt>
      <trkpt lat="45.86588" lon="1.27156">
        <ele>278</ele>
        <time>2020-01-17T11:01:08.1Z</time>
      </trkpt>
      <trkpt lat="45.86573" lon="1.27171">
        <ele>279</ele>
        <time>2020-01-17T11:01:18.1Z</time>
      </trkpt>
      <trkpt lat="45.86558" lon="1.27176">
        <ele>279</ele>
        <time>2020-01-17T11:01:29.1Z</time>
      </trkpt>
      <trkpt lat="45.86551" lon="1.27162">
        <ele>279</ele>
        <time>2020-01-17T11:01:39.1Z</time>
      </trkpt>
      <trkpt lat="45.86556" lon="1.27144">
        <ele>281</ele>
        <time>2020-01-17T11:01:49.1Z</time>
      </trkpt>
      <trkpt lat="45.86567" lon="1.27128">
        <ele>283</ele>
        <time>2020-01-17T11:02:00.1Z</time>
      </trkpt>
      <trkpt lat="45.86578" lon="1.27114">
        <ele>285</ele>
        <time>2020-01-17T11:02:11.1Z</time>
      </trkpt>
      <trkpt lat="45.86579" lon="1.27104">
        <ele>287</ele>
        <time>2020-01-17T11:02:21.1Z</time>
      </trkpt>
      <trkpt lat="45.86565" lon="1.27108">
        <ele>287</ele>
        <time>2020-01-17T11:02:31.1Z</time>
      </trkpt>
      <trkpt lat="45.86563" lon="1.27101">
        <ele>288</ele>
        <time>2020-01-17T11:02:42.1Z</time>
      </trkpt>
      <trkpt lat="45.8657" lon="1.27089">
        <ele>287</ele>
        <time>2020-01-17T11:02:53.1Z</time>
      </trkpt>
      <trkpt lat="45.86568" lon="1.27079">
        <ele>287</ele>
        <time>2020-01-17T11:03:04.1Z</time>
      </trkpt>
      <trkpt lat="45.86563" lon="1.27075">
        <ele>287</ele>
        <time>2020-01-17T11:03:15.1Z</time>
      </trkpt>
      <trkpt lat="45.86553" lon="1.27059">
        <ele>286</ele>
        <time>2020-01-17T11:03:26.1Z</time>
      </trkpt>
      <trkpt lat="45.86544" lon="1.27048">
        <ele>284</ele>
        <time>2020-01-17T11:03:36.1Z</time>
      </trkpt>
      <trkpt lat="45.86532" lon="1.27043">
        <ele>282</ele>
        <time>2020-01-17T11:03:46.1Z</time>
      </trkpt>
      <trkpt lat="45.86523" lon="1.2703">
        <ele>281</ele>
        <time>2020-01-17T11:03:57.1Z</time>
      </trkpt>
      <trkpt lat="45.86511" lon="1.27014">
        <ele>280</ele>
        <time>2020-01-17T11:04:08.1Z</time>
      </trkpt>
      <trkpt lat="45.865" lon="1.26998">
        <ele>280</ele>
        <time>2020-01-17T11:04:18.1Z</time>
      </trkpt>
      <trkpt lat="45.86495" lon="1.26973">
        <ele>280</ele>
        <time>2020-01-17T11:04:30.1Z</time>
      </trkpt>
      <trkpt lat="45.86487" lon="1.26955">
        <ele>280</ele>
        <time>2020-01-17T11:04:40.1Z</time>
      </trkpt>
      <trkpt lat="45.86476" lon="1.26939">
        <ele>279</ele>
        <time>2020-01-17T11:04:50.1Z</time>
      </trkpt>
      <trkpt lat="45.86454" lon="1.26932">
        <ele>277</ele>
        <time>2020-01-17T11:05:01.1Z</time>
      </trkpt>
      <trkpt lat="45.86435" lon="1.26932">
        <ele>276</ele>
        <time>2020-01-17T11:05:11.1Z</time>
      </trkpt>
      <trkpt lat="45.86428" lon="1.26929">
        <ele>275</ele>
        <time>2020-01-17T11:05:21.1Z</time>
      </trkpt>
      <trkpt lat="45.86419" lon="1.26927">
        <ele>275</ele>
        <time>2020-01-17T11:05:31.1Z</time>
      </trkpt>
      <trkpt lat="45.86422" lon="1.26912">
        <ele>274</ele>
        <time>2020-01-17T11:05:42.1Z</time>
      </trkpt>
      <trkpt lat="45.86406" lon="1.26912">
        <ele>273</ele>
        <time>2020-01-17T11:05:53.1Z</time>
      </trkpt>
      <trkpt lat="45.86391" lon="1.26912">
        <ele>272</ele>
        <time>2020-01-17T11:06:03.1Z</time>
      </trkpt>
      <trkpt lat="45.86379" lon="1.26901">
        <ele>272</ele>
        <time>2020-01-17T11:06:15.1Z</time>
      </trkpt>
      <trkpt lat="45.86374" lon="1.26883">
        <ele>272</ele>
        <time>2020-01-17T11:06:25.1Z</time>
      </trkpt>
      <trkpt lat="45.86369" lon="1.26862">
        <ele>272</ele>
        <time>2020-01-17T11:06:35.1Z</time>
      </trkpt>
      <trkpt lat="45.86368" lon="1.26838">
        <ele>271</ele>
        <time>2020-01-17T11:06:45.1Z</time>
      </trkpt>
      <trkpt lat="45.86365" lon="1.26813">
        <ele>272</ele>
        <time>2020-01-17T11:06:56.1Z</time>
      </trkpt>
      <trkpt lat="45.86359" lon="1.26792">
        <ele>271</ele>
        <time>2020-01-17T11:07:06.1Z</time>
      </trkpt>
      <trkpt lat="45.86342" lon="1.26785">
        <ele>271</ele>
        <time>2020-01-17T11:07:16.1Z</time>
      </trkpt>
      <trkpt lat="45.86316" lon="1.26792">
        <ele>271</ele>
        <time>2020-01-17T11:07:27.1Z</time>
      </trkpt>
      <trkpt lat="45.86302" lon="1.26798">
        <ele>272</ele>
        <time>2020-01-17T11:07:37.1Z</time>
      </trkpt>
      <trkpt lat="45.86298" lon="1.26816">
        <ele>273</ele>
        <time>2020-01-17T11:07:47.1Z</time>
      </trkpt>
      <trkpt lat="45.86293" lon="1.26819">
        <ele>272</ele>
        <time>2020-01-17T11:07:58.1Z</time>
      </trkpt>
      <trkpt lat="45.86281" lon="1.26821">
        <ele>272</ele>
        <time>2020-01-17T11:08:09.1Z</time>
      </trkpt>
      <trkpt lat="45.86263" lon="1.2683">
        <ele>271</ele>
        <time>2020-01-17T11:08:19.1Z</time>
      </trkpt>
      <trkpt lat="45.8625" lon="1.26836">
        <ele>271</ele>
        <time>2020-01-17T11:08:29.1Z</time>
      </trkpt>
      <trkpt lat="45.86236" lon="1.2684">
        <ele>271</ele>
        <time>2020-01-17T11:08:40.1Z</time>
      </trkpt>
      <trkpt lat="45.86223" lon="1.26843">
        <ele>270</ele>
        <time>2020-01-17T11:08:51.1Z</time>
      </trkpt>
      <trkpt lat="45.86205" lon="1.26848">
        <ele>270</ele>
        <time>2020-01-17T11:09:02.1Z</time>
      </trkpt>
      <trkpt lat="45.86185" lon="1.26852">
        <ele>269</ele>
        <time>2020-01-17T11:09:13.1Z</time>
      </trkpt>
      <trkpt lat="45.86171" lon="1.26853">
        <ele>269</ele>
        <time>2020-01-17T11:09:23.1Z</time>
      </trkpt>
      <trkpt lat="45.86155" lon="1.26853">
        <ele>269</ele>
        <time>2020-01-17T11:09:34.1Z</time>
      </trkpt>
      <trkpt lat="45.86143" lon="1.26851">
        <ele>269</ele>
        <time>2020-01-17T11:09:44.1Z</time>
      </trkpt>
      <trkpt lat="45.86128" lon="1.26851">
        <ele>268</ele>
        <time>2020-01-17T11:09:55.1Z</time>
      </trkpt>
      <trkpt lat="45.86111" lon="1.26849">
        <ele>268</ele>
        <time>2020-01-17T11:10:05.1Z</time>
      </trkpt>
      <trkpt lat="45.8609" lon="1.26848">
        <ele>268</ele>
        <time>2020-01-17T11:10:16.1Z</time>
      </trkpt>
      <trkpt lat="45.86068" lon="1.26849">
        <ele>268</ele>
        <time>2020-01-17T11:10:27.1Z</time>
      </trkpt>
      <trkpt lat="45.86057" lon="1.26848">
        <ele>269</ele>
        <time>2020-01-17T11:10:37.1Z</time>
      </trkpt>
      <trkpt lat="45.86053" lon="1.26843">
        <ele>268</ele>
        <time>2020-01-17T11:10:47.1Z</time>
      </trkpt>
      <trkpt lat="45.86038" lon="1.26837">
        <ele>268</ele>
        <time>2020-01-17T11:10:58.1Z</time>
      </trkpt>
      <trkpt lat="45.86039" lon="1.26828">
        <ele>268</ele>
        <time>2020-01-17T11:11:09.1Z</time>
      </trkpt>
      <trkpt lat="45.86001" lon="1.26765">
        <ele>267</ele>
        <time>2020-01-17T11:11:45.1Z</time>
      </trkpt>
      <trkpt lat="45.85995" lon="1.26754">
        <ele>269</ele>
        <time>2020-01-17T11:11:55.1Z</time>
      </trkpt>
      <trkpt lat="45.85984" lon="1.2675">
        <ele>272</ele>
        <time>2020-01-17T11:12:05.1Z</time>
      </trkpt>
      <trkpt lat="45.85984" lon="1.26747">
        <ele>273</ele>
        <time>2020-01-17T11:12:15.1Z</time>
      </trkpt>
      <trkpt lat="45.85982" lon="1.26748">
        <ele>273</ele>
        <time>2020-01-17T11:12:26.1Z</time>
      </trkpt>
      <trkpt lat="45.85982" lon="1.26741">
        <ele>272</ele>
        <time>2020-01-17T11:12:36.1Z</time>
      </trkpt>
      <trkpt lat="45.85986" lon="1.26724">
        <ele>271</ele>
        <time>2020-01-17T11:12:47.1Z</time>
      </trkpt>
      <trkpt lat="45.85987" lon="1.26709">
        <ele>270</ele>
        <time>2020-01-17T11:12:57.1Z</time>
      </trkpt>
      <trkpt lat="45.85992" lon="1.26689">
        <ele>269</ele>
        <time>2020-01-17T11:13:07.1Z</time>
      </trkpt>
      <trkpt lat="45.85996" lon="1.26672">
        <ele>269</ele>
        <time>2020-01-17T11:13:17.1Z</time>
      </trkpt>
      <trkpt lat="45.86007" lon="1.26645">
        <ele>270</ele>
        <time>2020-01-17T11:13:28.1Z</time>
      </trkpt>
      <trkpt lat="45.86012" lon="1.26624">
        <ele>271</ele>
        <time>2020-01-17T11:13:38.1Z</time>
      </trkpt>
      <trkpt lat="45.86021" lon="1.26598">
        <ele>273</ele>
        <time>2020-01-17T11:13:49.1Z</time>
      </trkpt>
      <trkpt lat="45.86021" lon="1.26575">
        <ele>274</ele>
        <time>2020-01-17T11:13:59.1Z</time>
      </trkpt>
      <trkpt lat="45.86016" lon="1.26557">
        <ele>276</ele>
        <time>2020-01-17T11:14:09.1Z</time>
      </trkpt>
      <trkpt lat="45.86005" lon="1.2655">
        <ele>279</ele>
        <time>2020-01-17T11:14:20.1Z</time>
      </trkpt>
      <trkpt lat="45.85986" lon="1.26552">
        <ele>282</ele>
        <time>2020-01-17T11:14:31.1Z</time>
      </trkpt>
      <trkpt lat="45.85975" lon="1.26551">
        <ele>283</ele>
        <time>2020-01-17T11:14:42.1Z</time>
      </trkpt>
      <trkpt lat="45.85965" lon="1.26544">
        <ele>283</ele>
        <time>2020-01-17T11:14:52.1Z</time>
      </trkpt>
      <trkpt lat="45.85964" lon="1.26518">
        <ele>282</ele>
        <time>2020-01-17T11:15:03.1Z</time>
      </trkpt>
      <trkpt lat="45.85964" lon="1.26491">
        <ele>282</ele>
        <time>2020-01-17T11:15:14.1Z</time>
      </trkpt>
      <trkpt lat="45.85956" lon="1.26467">
        <ele>282</ele>
        <time>2020-01-17T11:15:25.1Z</time>
      </trkpt>
      <trkpt lat="45.85952" lon="1.26441">
        <ele>282</ele>
        <time>2020-01-17T11:15:35.1Z</time>
      </trkpt>
      <trkpt lat="45.85952" lon="1.26414">
        <ele>282</ele>
        <time>2020-01-17T11:15:46.1Z</time>
      </trkpt>
      <trkpt lat="45.85951" lon="1.26386">
        <ele>283</ele>
        <time>2020-01-17T11:15:57.1Z</time>
      </trkpt>
      <trkpt lat="45.85941" lon="1.26369">
        <ele>284</ele>
        <time>2020-01-17T11:16:08.1Z</time>
      </trkpt>
      <trkpt lat="45.85938" lon="1.26351">
        <ele>285</ele>
        <time>2020-01-17T11:16:19.1Z</time>
      </trkpt>
      <trkpt lat="45.85934" lon="1.26331">
        <ele>286</ele>
        <time>2020-01-17T11:16:29.1Z</time>
      </trkpt>
      <trkpt lat="45.85928" lon="1.26311">
        <ele>287</ele>
        <time>2020-01-17T11:16:40.1Z</time>
      </trkpt>
      <trkpt lat="45.85921" lon="1.26293">
        <ele>288</ele>
        <time>2020-01-17T11:16:50.1Z</time>
      </trkpt>
      <trkpt lat="45.85914" lon="1.26272">
        <ele>288</ele>
        <time>2020-01-17T11:17:00.1Z</time>
      </trkpt>
      <trkpt lat="45.85917" lon="1.2625">
        <ele>288</ele>
        <time>2020-01-17T11:17:10.1Z</time>
      </trkpt>
      <trkpt lat="45.85921" lon="1.26222">
        <ele>288</ele>
        <time>2020-01-17T11:17:20.1Z</time>
      </trkpt>
      <trkpt lat="45.85918" lon="1.26195">
        <ele>288</ele>
        <time>2020-01-17T11:17:30.1Z</time>
      </trkpt>
      <trkpt lat="45.85907" lon="1.2617">
        <ele>288</ele>
        <time>2020-01-17T11:17:41.1Z</time>
      </trkpt>
      <trkpt lat="45.85904" lon="1.26145">
        <ele>287</ele>
        <time>2020-01-17T11:17:52.1Z</time>
      </trkpt>
      <trkpt lat="45.85897" lon="1.26122">
        <ele>287</ele>
        <time>2020-01-17T11:18:02.1Z</time>
      </trkpt>
      <trkpt lat="45.85896" lon="1.261">
        <ele>287</ele>
        <time>2020-01-17T11:18:13.1Z</time>
      </trkpt>
      <trkpt lat="45.85892" lon="1.26073">
        <ele>286</ele>
        <time>2020-01-17T11:18:23.1Z</time>
      </trkpt>
      <trkpt lat="45.85889" lon="1.26043">
        <ele>286</ele>
        <time>2020-01-17T11:18:34.1Z</time>
      </trkpt>
      <trkpt lat="45.85881" lon="1.2602">
        <ele>286</ele>
        <time>2020-01-17T11:18:44.1Z</time>
      </trkpt>
      <trkpt lat="45.8587" lon="1.25998">
        <ele>285</ele>
        <time>2020-01-17T11:18:55.1Z</time>
      </trkpt>
      <trkpt lat="45.8587" lon="1.25973">
        <ele>285</ele>
        <time>2020-01-17T11:19:06.1Z</time>
      </trkpt>
      <trkpt lat="45.85868" lon="1.25961">
        <ele>285</ele>
        <time>2020-01-17T11:19:07.1Z</time>
      </trkpt>
    </trkseg>
  </trk>
</gpx>